Barberton, Ohio
Current Conditions -  °F | °C
As of 9:54 AM on Sunday 23 Nov 2014 (Local Time) from KAKR Reporting Station
Light Rain Light Rain  
Wind Chill: 44°   Ceiling: 3600
Heat Index: 47°   Visibility: 10mi
Dew Point: 36°   Wind: 7mph
Humidity: 66%   Direction: 160°SSE
Pressure: 30.03"   Gusts: NA
Location:  41.01°N, 81.61°W
Report Text: KAKR 231454Z AUTO 16006KT 10SM -RA FEW030 BKN036 OVC070 08/02 A3003 RMK AO2 RAE01B35 SLP174 P0000 60000 T00830022 56002
Loading
Personal Weather Stations






























Interactive Weather Map New forecast layout! Learn more

10-Day Weather Forecast

Advertisements
Track Severe Weather on mobile